sensor_id;sensor_type;location;lat;lon;timestamp;temperature;humidity
20528;DHT22;23612;50.894;10.700;2023-07-16T00:00:20;17.80;99.90
20528;DHT22;23612;50.894;10.700;2023-07-16T00:02:46;17.80;99.90
20528;DHT22;23612;50.894;10.700;2023-07-16T00:05:12;17.90;99.90
20528;DHT22;23612;50.894;10.700;2023-07-16T00:07:37;17.90;99.90
20528;DHT22;23612;50.894;10.700;2023-07-16T00:10:03;18.00;99.90
20528;DHT22;23612;50.894;10.700;2023-07-16T00:12:29;18.10;99.90
20528;DHT22;23612;50.894;10.700;2023-07-16T00:14:54;18.10;99.90
20528;DHT22;23612;50.894;10.700;2023-07-16T00:17:20;18.10;99.90
20528;DHT22;23612;50.894;10.700;2023-07-16T00:19:46;18.10;99.90
20528;DHT22;23612;50.894;10.700;2023-07-16T00:22:11;18.20;99.90
20528;DHT22;23612;50.894;10.700;2023-07-16T00:24:37;18.20;99.90
20528;DHT22;23612;50.894;10.700;2023-07-16T00:27:02;18.20;99.90
20528;DHT22;23612;50.894;10.700;2023-07-16T00:29:29;18.20;99.90
20528;DHT22;23612;50.894;10.700;2023-07-16T00:31:54;18.20;99.90
20528;DHT22;23612;50.894;10.700;2023-07-16T00:34:20;18.30;99.90
20528;DHT22;23612;50.894;10.700;2023-07-16T00:36:45;18.20;99.90
20528;DHT22;23612;50.894;10.700;2023-07-16T00:39:11;18.20;99.90
20528;DHT22;23612;50.894;10.700;2023-07-16T00:41:36;18.30;99.90
20528;DHT22;23612;50.894;10.700;2023-07-16T00:44:02;18.30;99.90
20528;DHT22;23612;50.894;10.700;2023-07-16T00:46:28;18.30;99.90
20528;DHT22;23612;50.894;10.700;2023-07-16T00:48:54;18.30;99.90
20528;DHT22;23612;50.894;10.700;2023-07-16T00:51:21;18.40;99.90
20528;DHT22;23612;50.894;10.700;2023-07-16T00:53:48;18.40;99.90
20528;DHT22;23612;50.894;10.700;2023-07-16T00:56:16;18.40;99.90
20528;DHT22;23612;50.894;10.700;2023-07-16T00:58:42;18.40;99.90
20528;DHT22;23612;50.894;10.700;2023-07-16T01:01:07;18.40;99.90
20528;DHT22;23612;50.894;10.700;2023-07-16T01:03:33;18.40;99.90
20528;DHT22;23612;50.894;10.700;2023-07-16T01:06:11;18.40;99.90
20528;DHT22;23612;50.894;10.700;2023-07-16T01:08:46;18.30;99.90
20528;DHT22;23612;50.894;10.700;2023-07-16T01:11:12;18.30;99.90
20528;DHT22;23612;50.894;10.700;2023-07-16T01:13:39;18.30;99.90
20528;DHT22;23612;50.894;10.700;2023-07-16T01:16:05;18.30;99.90
20528;DHT22;23612;50.894;10.700;2023-07-16T01:18:31;18.20;99.90
20528;DHT22;23612;50.894;10.700;2023-07-16T01:20:56;18.30;99.90
20528;DHT22;23612;50.894;10.700;2023-07-16T01:23:35;18.30;99.90
20528;DHT22;23612;50.894;10.700;2023-07-16T01:29:18;18.50;99.90
20528;DHT22;23612;50.894;10.700;2023-07-16T01:31:46;18.60;99.90
20528;DHT22;23612;50.894;10.700;2023-07-16T01:34:14;18.60;99.90
20528;DHT22;23612;50.894;10.700;2023-07-16T01:36:41;18.60;99.90
20528;DHT22;23612;50.894;10.700;2023-07-16T01:39:07;18.70;99.90
20528;DHT22;23612;50.894;10.700;2023-07-16T01:41:32;18.70;99.90
20528;DHT22;23612;50.894;10.700;2023-07-16T01:43:58;18.70;99.90
20528;DHT22;23612;50.894;10.700;2023-07-16T01:46:24;18.80;99.90
20528;DHT22;23612;50.894;10.700;2023-07-16T01:48:50;18.80;99.90
20528;DHT22;23612;50.894;10.700;2023-07-16T01:51:16;18.80;99.90
20528;DHT22;23612;50.894;10.700;2023-07-16T01:53:41;18.80;99.90
20528;DHT22;23612;50.894;10.700;2023-07-16T01:56:07;18.70;99.90
20528;DHT22;23612;50.894;10.700;2023-07-16T01:58:32;18.60;99.90
20528;DHT22;23612;50.894;10.700;2023-07-16T02:00:58;18.60;99.90
20528;DHT22;23612;50.894;10.700;2023-07-16T02:03:23;18.60;99.90
20528;DHT22;23612;50.894;10.700;2023-07-16T02:05:49;18.60;99.90
20528;DHT22;23612;50.894;10.700;2023-07-16T02:08:16;18.70;99.90
20528;DHT22;23612;50.894;10.700;2023-07-16T02:10:41;18.60;99.90
20528;DHT22;23612;50.894;10.700;2023-07-16T02:13:07;18.60;99.90
20528;DHT22;23612;50.894;10.700;2023-07-16T02:15:32;18.60;99.90
20528;DHT22;23612;50.894;10.700;2023-07-16T02:17:58;18.60;99.90
20528;DHT22;23612;50.894;10.700;2023-07-16T02:20:23;18.60;99.90
20528;DHT22;23612;50.894;10.700;2023-07-16T02:22:49;18.60;99.90
20528;DHT22;23612;50.894;10.700;2023-07-16T02:25:14;18.60;99.90
20528;DHT22;23612;50.894;10.700;2023-07-16T02:27:40;18.60;99.90
20528;DHT22;23612;50.894;10.700;2023-07-16T02:30:06;18.60;99.90
20528;DHT22;23612;50.894;10.700;2023-07-16T02:32:32;18.60;99.90
20528;DHT22;23612;50.894;10.700;2023-07-16T02:34:58;18.50;99.90
20528;DHT22;23612;50.894;10.700;2023-07-16T02:37:23;18.50;99.90
20528;DHT22;23612;50.894;10.700;2023-07-16T02:39:49;18.40;99.90
20528;DHT22;23612;50.894;10.700;2023-07-16T02:42:14;18.30;99.90
20528;DHT22;23612;50.894;10.700;2023-07-16T02:44:40;18.40;99.90
20528;DHT22;23612;50.894;10.700;2023-07-16T02:47:13;18.40;99.90
20528;DHT22;23612;50.894;10.700;2023-07-16T02:49:38;18.40;99.90
20528;DHT22;23612;50.894;10.700;2023-07-16T02:52:05;18.50;99.90
20528;DHT22;23612;50.894;10.700;2023-07-16T02:54:31;18.60;99.90
20528;DHT22;23612;50.894;10.700;2023-07-16T02:56:57;18.60;99.90
20528;DHT22;23612;50.894;10.700;2023-07-16T02:59:23;18.70;99.90
20528;DHT22;23612;50.894;10.700;2023-07-16T03:01:49;18.80;99.90
20528;DHT22;23612;50.894;10.700;2023-07-16T03:04:14;18.80;99.90
20528;DHT22;23612;50.894;10.700;2023-07-16T03:06:40;18.90;99.90
20528;DHT22;23612;50.894;10.700;2023-07-16T03:09:05;18.90;99.90
20528;DHT22;23612;50.894;10.700;2023-07-16T03:11:31;18.90;99.90
20528;DHT22;23612;50.894;10.700;2023-07-16T03:13:56;19.00;99.90
20528;DHT22;23612;50.894;10.700;2023-07-16T03:16:22;19.00;99.90
20528;DHT22;23612;50.894;10.700;2023-07-16T03:18:47;19.00;99.90
20528;DHT22;23612;50.894;10.700;2023-07-16T03:21:13;19.00;99.90
20528;DHT22;23612;50.894;10.700;2023-07-16T03:23:39;18.90;99.90
20528;DHT22;23612;50.894;10.700;2023-07-16T03:26:04;18.90;99.90
20528;DHT22;23612;50.894;10.700;2023-07-16T03:28:30;18.90;99.90
20528;DHT22;23612;50.894;10.700;2023-07-16T03:30:55;18.90;99.90
20528;DHT22;23612;50.894;10.700;2023-07-16T03:33:21;18.90;99.90
20528;DHT22;23612;50.894;10.700;2023-07-16T03:35:48;18.90;99.90
20528;DHT22;23612;50.894;10.700;2023-07-16T03:38:14;18.80;99.90
20528;DHT22;23612;50.894;10.700;2023-07-16T03:40:42;18.80;99.90
20528;DHT22;23612;50.894;10.700;2023-07-16T03:43:08;18.80;99.90
20528;DHT22;23612;50.894;10.700;2023-07-16T03:45:34;18.80;99.90
20528;DHT22;23612;50.894;10.700;2023-07-16T03:47:59;18.80;99.90
20528;DHT22;23612;50.894;10.700;2023-07-16T03:50:25;18.80;99.90
20528;DHT22;23612;50.894;10.700;2023-07-16T03:52:50;18.80;99.90
20528;DHT22;23612;50.894;10.700;2023-07-16T03:55:16;18.70;99.90
20528;DHT22;23612;50.894;10.700;2023-07-16T03:57:42;18.70;99.90
20528;DHT22;23612;50.894;10.700;2023-07-16T04:00:08;18.70;99.90
20528;DHT22;23612;50.894;10.700;2023-07-16T04:02:35;18.60;99.90
20528;DHT22;23612;50.894;10.700;2023-07-16T04:05:01;18.60;99.90
20528;DHT22;23612;50.894;10.700;2023-07-16T04:07:26;18.60;99.90
20528;DHT22;23612;50.894;10.700;2023-07-16T04:09:52;18.60;99.90
20528;DHT22;23612;50.894;10.700;2023-07-16T04:12:18;18.50;99.90
20528;DHT22;23612;50.894;10.700;2023-07-16T04:14:43;18.40;99.90
20528;DHT22;23612;50.894;10.700;2023-07-16T04:17:09;18.40;99.90
20528;DHT22;23612;50.894;10.700;2023-07-16T04:19:34;18.40;99.90
20528;DHT22;23612;50.894;10.700;2023-07-16T04:22:00;18.30;99.90
20528;DHT22;23612;50.894;10.700;2023-07-16T04:24:25;18.30;99.90
20528;DHT22;23612;50.894;10.700;2023-07-16T04:26:53;18.30;99.90
20528;DHT22;23612;50.894;10.700;2023-07-16T04:29:19;18.30;99.90
20528;DHT22;23612;50.894;10.700;2023-07-16T04:31:44;18.30;99.90
20528;DHT22;23612;50.894;10.700;2023-07-16T04:34:09;18.30;99.90
20528;DHT22;23612;50.894;10.700;2023-07-16T04:36:35;18.30;99.90
20528;DHT22;23612;50.894;10.700;2023-07-16T04:39:01;18.30;99.90
20528;DHT22;23612;50.894;10.700;2023-07-16T04:41:27;18.40;99.90
20528;DHT22;23612;50.894;10.700;2023-07-16T04:43:52;18.40;99.90
20528;DHT22;23612;50.894;10.700;2023-07-16T04:46:18;18.40;99.90
20528;DHT22;23612;50.894;10.700;2023-07-16T04:48:44;18.40;99.90
20528;DHT22;23612;50.894;10.700;2023-07-16T04:51:09;18.40;99.90
20528;DHT22;23612;50.894;10.700;2023-07-16T04:53:35;18.40;99.90
20528;DHT22;23612;50.894;10.700;2023-07-16T04:56:00;18.40;99.90
20528;DHT22;23612;50.894;10.700;2023-07-16T04:58:26;18.40;99.90
20528;DHT22;23612;50.894;10.700;2023-07-16T05:00:51;18.40;99.90
20528;DHT22;23612;50.894;10.700;2023-07-16T05:03:17;18.40;99.90
20528;DHT22;23612;50.894;10.700;2023-07-16T05:05:42;18.40;99.90
20528;DHT22;23612;50.894;10.700;2023-07-16T05:08:08;18.40;99.90
20528;DHT22;23612;50.894;10.700;2023-07-16T05:10:34;18.50;99.90
20528;DHT22;23612;50.894;10.700;2023-07-16T05:12:59;18.50;99.90
20528;DHT22;23612;50.894;10.700;2023-07-16T05:15:25;18.40;99.90
20528;DHT22;23612;50.894;10.700;2023-07-16T05:17:50;18.40;99.90
20528;DHT22;23612;50.894;10.700;2023-07-16T05:20:16;18.50;99.90
20528;DHT22;23612;50.894;10.700;2023-07-16T05:22:42;18.50;99.90
20528;DHT22;23612;50.894;10.700;2023-07-16T05:25:08;18.60;99.90
20528;DHT22;23612;50.894;10.700;2023-07-16T05:27:33;18.60;99.90
20528;DHT22;23612;50.894;10.700;2023-07-16T05:29:59;18.70;99.90
20528;DHT22;23612;50.894;10.700;2023-07-16T05:32:24;18.80;99.90
20528;DHT22;23612;50.894;10.700;2023-07-16T05:34:50;19.20;99.90
20528;DHT22;23612;50.894;10.700;2023-07-16T05:37:15;19.30;99.90
20528;DHT22;23612;50.894;10.700;2023-07-16T05:39:41;19.50;99.90
20528;DHT22;23612;50.894;10.700;2023-07-16T05:42:06;19.90;99.90
20528;DHT22;23612;50.894;10.700;2023-07-16T05:44:33;20.20;99.90
20528;DHT22;23612;50.894;10.700;2023-07-16T05:46:59;20.40;99.90
20528;DHT22;23612;50.894;10.700;2023-07-16T05:49:25;20.60;99.90
20528;DHT22;23612;50.894;10.700;2023-07-16T05:51:51;20.90;99.90
20528;DHT22;23612;50.894;10.700;2023-07-16T05:54:17;21.00;99.90
20528;DHT22;23612;50.894;10.700;2023-07-16T05:56:43;20.90;99.90
20528;DHT22;23612;50.894;10.700;2023-07-16T05:59:08;20.80;99.90
20528;DHT22;23612;50.894;10.700;2023-07-16T06:01:35;20.70;99.90
20528;DHT22;23612;50.894;10.700;2023-07-16T06:04:00;20.70;99.90
20528;DHT22;23612;50.894;10.700;2023-07-16T06:06:27;20.50;99.90
20528;DHT22;23612;50.894;10.700;2023-07-16T06:08:53;20.30;99.90
20528;DHT22;23612;50.894;10.700;2023-07-16T06:11:18;20.70;99.90
20528;DHT22;23612;50.894;10.700;2023-07-16T06:13:44;21.10;99.90
20528;DHT22;23612;50.894;10.700;2023-07-16T06:16:09;21.00;99.90
20528;DHT22;23612;50.894;10.700;2023-07-16T06:18:35;20.90;99.90
20528;DHT22;23612;50.894;10.700;2023-07-16T06:21:00;21.00;99.90
20528;DHT22;23612;50.894;10.700;2023-07-16T06:23:26;21.40;99.90
20528;DHT22;23612;50.894;10.700;2023-07-16T06:25:55;22.10;99.90
20528;DHT22;23612;50.894;10.700;2023-07-16T06:28:22;22.80;99.90
20528;DHT22;23612;50.894;10.700;2023-07-16T06:30:47;23.10;99.90
20528;DHT22;23612;50.894;10.700;2023-07-16T06:33:13;23.60;99.90
20528;DHT22;23612;50.894;10.700;2023-07-16T06:35:38;24.00;99.90
20528;DHT22;23612;50.894;10.700;2023-07-16T06:38:04;24.30;99.90
20528;DHT22;23612;50.894;10.700;2023-07-16T06:40:30;24.20;99.90
20528;DHT22;23612;50.894;10.700;2023-07-16T06:42:56;24.50;99.90
20528;DHT22;23612;50.894;10.700;2023-07-16T06:45:22;25.00;99.90
20528;DHT22;23612;50.894;10.700;2023-07-16T06:47:48;25.00;99.90
20528;DHT22;23612;50.894;10.700;2023-07-16T06:50:14;25.10;99.90
20528;DHT22;23612;50.894;10.700;2023-07-16T06:52:39;24.80;99.90
20528;DHT22;23612;50.894;10.700;2023-07-16T06:55:05;24.50;99.90
20528;DHT22;23612;50.894;10.700;2023-07-16T06:57:31;24.60;99.90
20528;DHT22;23612;50.894;10.700;2023-07-16T06:59:56;24.90;99.90
20528;DHT22;23612;50.894;10.700;2023-07-16T07:02:22;24.90;99.90
20528;DHT22;23612;50.894;10.700;2023-07-16T07:04:47;25.10;99.90
20528;DHT22;23612;50.894;10.700;2023-07-16T07:07:13;25.00;99.90
20528;DHT22;23612;50.894;10.700;2023-07-16T07:09:38;25.20;99.90
20528;DHT22;23612;50.894;10.700;2023-07-16T07:12:04;25.10;99.90
20528;DHT22;23612;50.894;10.700;2023-07-16T07:14:29;25.20;99.90
20528;DHT22;23612;50.894;10.700;2023-07-16T07:16:55;25.20;99.90
20528;DHT22;23612;50.894;10.700;2023-07-16T07:19:21;25.00;99.90
20528;DHT22;23612;50.894;10.700;2023-07-16T07:21:46;25.40;99.90
20528;DHT22;23612;50.894;10.700;2023-07-16T07:24:12;25.90;99.90
20528;DHT22;23612;50.894;10.700;2023-07-16T07:26:38;26.00;99.90
20528;DHT22;23612;50.894;10.700;2023-07-16T07:29:03;26.50;99.90
20528;DHT22;23612;50.894;10.700;2023-07-16T07:31:29;26.60;99.90
20528;DHT22;23612;50.894;10.700;2023-07-16T07:33:54;27.00;99.90
20528;DHT22;23612;50.894;10.700;2023-07-16T07:36:22;27.60;99.90
20528;DHT22;23612;50.894;10.700;2023-07-16T07:38:48;28.10;99.90
20528;DHT22;23612;50.894;10.700;2023-07-16T07:41:13;27.70;99.90
20528;DHT22;23612;50.894;10.700;2023-07-16T07:43:39;27.50;99.40
20528;DHT22;23612;50.894;10.700;2023-07-16T07:46:04;27.40;99.90
20528;DHT22;23612;50.894;10.700;2023-07-16T07:48:31;27.70;99.90
20528;DHT22;23612;50.894;10.700;2023-07-16T07:50:56;27.80;98.70
20528;DHT22;23612;50.894;10.700;2023-07-16T07:53:22;27.60;98.20
20528;DHT22;23612;50.894;10.700;2023-07-16T07:55:47;27.90;98.00
20528;DHT22;23612;50.894;10.700;2023-07-16T07:58:13;28.20;96.70
20528;DHT22;23612;50.894;10.700;2023-07-16T08:00:39;28.00;96.10
20528;DHT22;23612;50.894;10.700;2023-07-16T08:03:04;27.90;95.20
20528;DHT22;23612;50.894;10.700;2023-07-16T08:05:30;28.00;95.20
20528;DHT22;23612;50.894;10.700;2023-07-16T08:07:55;28.10;93.50
20528;DHT22;23612;50.894;10.700;2023-07-16T08:10:21;27.80;93.40
20528;DHT22;23612;50.894;10.700;2023-07-16T08:12:47;27.90;93.20
20528;DHT22;23612;50.894;10.700;2023-07-16T08:15:13;27.40;93.00
20528;DHT22;23612;50.894;10.700;2023-07-16T08:17:42;27.40;92.80
20528;DHT22;23612;50.894;10.700;2023-07-16T08:20:08;27.30;91.90
20528;DHT22;23612;50.894;10.700;2023-07-16T08:22:34;27.20;92.50
20528;DHT22;23612;50.894;10.700;2023-07-16T08:24:59;26.60;92.10
20528;DHT22;23612;50.894;10.700;2023-07-16T08:27:25;26.70;93.30
20528;DHT22;23612;50.894;10.700;2023-07-16T08:29:50;26.50;92.50
20528;DHT22;23612;50.894;10.700;2023-07-16T08:32:16;26.80;93.10
20528;DHT22;23612;50.894;10.700;2023-07-16T08:34:41;27.20;92.70
20528;DHT22;23612;50.894;10.700;2023-07-16T08:37:07;27.70;92.80
20528;DHT22;23612;50.894;10.700;2023-07-16T08:39:33;28.00;92.20
20528;DHT22;23612;50.894;10.700;2023-07-16T08:41:59;28.80;91.30
20528;DHT22;23612;50.894;10.700;2023-07-16T08:44:24;28.50;88.20
20528;DHT22;23612;50.894;10.700;2023-07-16T08:46:51;28.20;89.60
20528;DHT22;23612;50.894;10.700;2023-07-16T08:49:17;27.80;89.70
20528;DHT22;23612;50.894;10.700;2023-07-16T08:51:48;27.50;90.60
20528;DHT22;23612;50.894;10.700;2023-07-16T08:54:14;27.80;90.60
20528;DHT22;23612;50.894;10.700;2023-07-16T08:56:45;27.80;88.90
20528;DHT22;23612;50.894;10.700;2023-07-16T08:59:12;27.90;89.20
20528;DHT22;23612;50.894;10.700;2023-07-16T09:01:38;28.30;88.40
20528;DHT22;23612;50.894;10.700;2023-07-16T09:04:04;28.40;88.60
20528;DHT22;23612;50.894;10.700;2023-07-16T09:06:29;28.30;87.70
20528;DHT22;23612;50.894;10.700;2023-07-16T09:08:55;28.20;87.40
20528;DHT22;23612;50.894;10.700;2023-07-16T09:11:21;28.10;87.10
20528;DHT22;23612;50.894;10.700;2023-07-16T09:13:48;27.80;87.30
20528;DHT22;23612;50.894;10.700;2023-07-16T09:16:14;28.30;86.90
20528;DHT22;23612;50.894;10.700;2023-07-16T09:18:42;28.50;83.90
20528;DHT22;23612;50.894;10.700;2023-07-16T09:21:07;28.30;83.70
20528;DHT22;23612;50.894;10.700;2023-07-16T09:23:33;27.90;83.90
20528;DHT22;23612;50.894;10.700;2023-07-16T09:25:59;27.80;83.00
20528;DHT22;23612;50.894;10.700;2023-07-16T09:28:25;28.00;83.40
20528;DHT22;23612;50.894;10.700;2023-07-16T09:30:51;28.20;83.00
20528;DHT22;23612;50.894;10.700;2023-07-16T09:33:19;28.40;82.70
20528;DHT22;23612;50.894;10.700;2023-07-16T09:35:51;28.70;83.20
20528;DHT22;23612;50.894;10.700;2023-07-16T09:38:17;28.80;81.60
20528;DHT22;23612;50.894;10.700;2023-07-16T09:40:44;28.60;82.70
20528;DHT22;23612;50.894;10.700;2023-07-16T09:43:10;28.70;82.20
20528;DHT22;23612;50.894;10.700;2023-07-16T09:45:36;28.80;81.30
20528;DHT22;23612;50.894;10.700;2023-07-16T09:48:05;29.10;82.50
20528;DHT22;23612;50.894;10.700;2023-07-16T09:50:32;29.30;81.70
20528;DHT22;23612;50.894;10.700;2023-07-16T09:52:59;29.40;80.10
20528;DHT22;23612;50.894;10.700;2023-07-16T09:55:25;29.80;80.60
20528;DHT22;23612;50.894;10.700;2023-07-16T09:57:55;30.50;76.60
20528;DHT22;23612;50.894;10.700;2023-07-16T10:00:22;30.60;75.70
20528;DHT22;23612;50.894;10.700;2023-07-16T10:02:50;30.50;73.60
20528;DHT22;23612;50.894;10.700;2023-07-16T10:05:20;30.20;73.60
20528;DHT22;23612;50.894;10.700;2023-07-16T10:07:58;30.60;74.60
20528;DHT22;23612;50.894;10.700;2023-07-16T10:10:41;30.50;72.10
20528;DHT22;23612;50.894;10.700;2023-07-16T10:13:08;30.10;72.90
20528;DHT22;23612;50.894;10.700;2023-07-16T10:15:36;29.90;71.20
20528;DHT22;23612;50.894;10.700;2023-07-16T10:18:02;29.50;72.80
20528;DHT22;23612;50.894;10.700;2023-07-16T10:20:35;28.90;74.50
20528;DHT22;23612;50.894;10.700;2023-07-16T10:23:12;28.60;71.60
20528;DHT22;23612;50.894;10.700;2023-07-16T10:25:38;28.60;74.70
20528;DHT22;23612;50.894;10.700;2023-07-16T10:28:04;28.40;72.80
20528;DHT22;23612;50.894;10.700;2023-07-16T10:30:30;28.30;72.80
20528;DHT22;23612;50.894;10.700;2023-07-16T10:32:56;28.80;71.50
20528;DHT22;23612;50.894;10.700;2023-07-16T10:35:21;28.80;71.90
20528;DHT22;23612;50.894;10.700;2023-07-16T10:37:47;28.80;71.20
20528;DHT22;23612;50.894;10.700;2023-07-16T10:40:14;28.80;72.00
20528;DHT22;23612;50.894;10.700;2023-07-16T10:42:45;29.30;72.10
20528;DHT22;23612;50.894;10.700;2023-07-16T10:45:12;29.20;71.40
20528;DHT22;23612;50.894;10.700;2023-07-16T10:47:39;29.50;69.50
20528;DHT22;23612;50.894;10.700;2023-07-16T10:50:07;29.50;70.70
20528;DHT22;23612;50.894;10.700;2023-07-16T10:52:34;29.50;70.40
20528;DHT22;23612;50.894;10.700;2023-07-16T10:55:00;29.20;69.30
20528;DHT22;23612;50.894;10.700;2023-07-16T10:57:26;29.30;69.50
20528;DHT22;23612;50.894;10.700;2023-07-16T10:59:53;29.70;70.50
20528;DHT22;23612;50.894;10.700;2023-07-16T11:02:21;29.90;69.70
20528;DHT22;23612;50.894;10.700;2023-07-16T11:04:48;30.20;66.90
20528;DHT22;23612;50.894;10.700;2023-07-16T11:07:15;30.60;67.20
20528;DHT22;23612;50.894;10.700;2023-07-16T11:10:00;30.20;65.30
20528;DHT22;23612;50.894;10.700;2023-07-16T11:12:28;29.90;67.20
20528;DHT22;23612;50.894;10.700;2023-07-16T11:14:55;29.30;66.50
20528;DHT22;23612;50.894;10.700;2023-07-16T11:17:22;29.50;67.40
20528;DHT22;23612;50.894;10.700;2023-07-16T11:19:48;30.10;65.40
20528;DHT22;23612;50.894;10.700;2023-07-16T11:22:15;30.10;64.90
20528;DHT22;23612;50.894;10.700;2023-07-16T11:24:46;30.90;63.70
20528;DHT22;23612;50.894;10.700;2023-07-16T11:27:26;31.00;62.90
20528;DHT22;23612;50.894;10.700;2023-07-16T11:29:54;30.80;61.30
20528;DHT22;23612;50.894;10.700;2023-07-16T11:32:45;30.60;61.30
20528;DHT22;23612;50.894;10.700;2023-07-16T11:35:16;30.40;61.50
20528;DHT22;23612;50.894;10.700;2023-07-16T11:37:42;30.10;61.70
20528;DHT22;23612;50.894;10.700;2023-07-16T11:40:09;30.30;63.40
20528;DHT22;23612;50.894;10.700;2023-07-16T11:42:38;30.50;61.90
20528;DHT22;23612;50.894;10.700;2023-07-16T11:45:14;30.90;60.10
20528;DHT22;23612;50.894;10.700;2023-07-16T11:47:39;31.40;60.00
20528;DHT22;23612;50.894;10.700;2023-07-16T11:50:05;31.60;58.80
20528;DHT22;23612;50.894;10.700;2023-07-16T11:52:31;31.00;57.80
20528;DHT22;23612;50.894;10.700;2023-07-16T11:54:58;30.60;58.40
20528;DHT22;23612;50.894;10.700;2023-07-16T11:57:25;30.40;59.10
20528;DHT22;23612;50.894;10.700;2023-07-16T11:59:50;30.60;58.60
20528;DHT22;23612;50.894;10.700;2023-07-16T12:02:16;30.60;58.40
20528;DHT22;23612;50.894;10.700;2023-07-16T12:04:41;30.10;58.70
20528;DHT22;23612;50.894;10.700;2023-07-16T12:07:07;30.10;59.20
20528;DHT22;23612;50.894;10.700;2023-07-16T12:09:33;30.30;59.30
20528;DHT22;23612;50.894;10.700;2023-07-16T12:12:00;29.90;58.70
20528;DHT22;23612;50.894;10.700;2023-07-16T12:14:26;30.30;59.30
20528;DHT22;23612;50.894;10.700;2023-07-16T12:16:52;30.30;58.60
20528;DHT22;23612;50.894;10.700;2023-07-16T12:19:17;30.80;58.30
20528;DHT22;23612;50.894;10.700;2023-07-16T12:21:43;31.10;59.20
20528;DHT22;23612;50.894;10.700;2023-07-16T12:24:08;31.40;57.90
20528;DHT22;23612;50.894;10.700;2023-07-16T12:26:34;31.30;57.90
20528;DHT22;23612;50.894;10.700;2023-07-16T12:29:00;31.50;56.60
20528;DHT22;23612;50.894;10.700;2023-07-16T12:31:28;30.80;57.40
20528;DHT22;23612;50.894;10.700;2023-07-16T12:33:53;30.70;56.70
20528;DHT22;23612;50.894;10.700;2023-07-16T12:36:19;30.50;57.20
20528;DHT22;23612;50.894;10.700;2023-07-16T12:38:44;30.80;57.70
20528;DHT22;23612;50.894;10.700;2023-07-16T12:41:10;31.10;55.80
20528;DHT22;23612;50.894;10.700;2023-07-16T12:43:35;30.60;57.50
20528;DHT22;23612;50.894;10.700;2023-07-16T12:46:01;31.00;56.80
20528;DHT22;23612;50.894;10.700;2023-07-16T12:48:31;30.70;55.60
20528;DHT22;23612;50.894;10.700;2023-07-16T12:50:56;30.90;56.60
20528;DHT22;23612;50.894;10.700;2023-07-16T12:53:23;30.60;56.30
20528;DHT22;23612;50.894;10.700;2023-07-16T12:55:48;30.60;57.90
20528;DHT22;23612;50.894;10.700;2023-07-16T12:58:14;30.70;58.60
20528;DHT22;23612;50.894;10.700;2023-07-16T13:00:40;30.60;56.90
20528;DHT22;23612;50.894;10.700;2023-07-16T13:03:05;30.40;57.30
20528;DHT22;23612;50.894;10.700;2023-07-16T13:05:31;29.20;58.00
20528;DHT22;23612;50.894;10.700;2023-07-16T13:07:56;28.50;59.80
20528;DHT22;23612;50.894;10.700;2023-07-16T13:10:23;28.30;62.10
20528;DHT22;23612;50.894;10.700;2023-07-16T13:12:48;28.00;60.60
20528;DHT22;23612;50.894;10.700;2023-07-16T13:15:14;27.70;62.00
20528;DHT22;23612;50.894;10.700;2023-07-16T13:17:40;27.60;63.10
20528;DHT22;23612;50.894;10.700;2023-07-16T13:20:06;27.20;63.20
20528;DHT22;23612;50.894;10.700;2023-07-16T13:22:32;27.10;63.80
20528;DHT22;23612;50.894;10.700;2023-07-16T13:24:57;27.00;64.20
20528;DHT22;23612;50.894;10.700;2023-07-16T13:27:24;26.90;63.50
20528;DHT22;23612;50.894;10.700;2023-07-16T13:29:49;26.40;65.20
20528;DHT22;23612;50.894;10.700;2023-07-16T13:32:15;25.90;66.00
20528;DHT22;23612;50.894;10.700;2023-07-16T13:34:41;25.80;67.60
20528;DHT22;23612;50.894;10.700;2023-07-16T13:37:09;25.60;67.30
20528;DHT22;23612;50.894;10.700;2023-07-16T13:39:35;25.50;67.90
20528;DHT22;23612;50.894;10.700;2023-07-16T13:42:00;25.50;66.90
20528;DHT22;23612;50.894;10.700;2023-07-16T13:44:26;25.20;66.00
20528;DHT22;23612;50.894;10.700;2023-07-16T13:46:51;25.20;68.20
20528;DHT22;23612;50.894;10.700;2023-07-16T13:49:16;25.20;68.90
20528;DHT22;23612;50.894;10.700;2023-07-16T13:51:42;25.20;68.30
20528;DHT22;23612;50.894;10.700;2023-07-16T13:54:09;25.30;67.80
20528;DHT22;23612;50.894;10.700;2023-07-16T13:56:35;25.20;67.80
20528;DHT22;23612;50.894;10.700;2023-07-16T13:59:00;25.00;67.10
20528;DHT22;23612;50.894;10.700;2023-07-16T14:01:26;25.00;69.20
20528;DHT22;23612;50.894;10.700;2023-07-16T14:03:51;25.20;69.50
20528;DHT22;23612;50.894;10.700;2023-07-16T14:06:17;25.30;69.60
20528;DHT22;23612;50.894;10.700;2023-07-16T14:08:43;25.40;68.50
20528;DHT22;23612;50.894;10.700;2023-07-16T14:11:09;25.40;68.30
20528;DHT22;23612;50.894;10.700;2023-07-16T14:13:34;25.30;67.50
20528;DHT22;23612;50.894;10.700;2023-07-16T14:16:00;25.30;68.60
20528;DHT22;23612;50.894;10.700;2023-07-16T14:18:25;25.30;67.50
20528;DHT22;23612;50.894;10.700;2023-07-16T14:20:51;25.20;66.70
20528;DHT22;23612;50.894;10.700;2023-07-16T14:23:16;25.20;67.00
20528;DHT22;23612;50.894;10.700;2023-07-16T14:25:42;25.10;66.40
20528;DHT22;23612;50.894;10.700;2023-07-16T14:28:07;25.00;68.30
20528;DHT22;23612;50.894;10.700;2023-07-16T14:30:33;25.00;69.30
20528;DHT22;23612;50.894;10.700;2023-07-16T14:32:58;25.10;68.60
20528;DHT22;23612;50.894;10.700;2023-07-16T14:35:24;25.00;68.60
20528;DHT22;23612;50.894;10.700;2023-07-16T14:37:50;25.20;68.80
20528;DHT22;23612;50.894;10.700;2023-07-16T14:40:16;25.30;68.30
20528;DHT22;23612;50.894;10.700;2023-07-16T14:42:42;25.50;67.20
20528;DHT22;23612;50.894;10.700;2023-07-16T14:45:09;25.50;66.60
20528;DHT22;23612;50.894;10.700;2023-07-16T14:47:34;25.60;66.50
20528;DHT22;23612;50.894;10.700;2023-07-16T14:50:00;25.60;66.10
20528;DHT22;23612;50.894;10.700;2023-07-16T14:52:25;25.60;66.20
20528;DHT22;23612;50.894;10.700;2023-07-16T14:54:51;25.50;65.50
20528;DHT22;23612;50.894;10.700;2023-07-16T14:57:16;25.40;65.60
20528;DHT22;23612;50.894;10.700;2023-07-16T14:59:42;25.30;65.30
20528;DHT22;23612;50.894;10.700;2023-07-16T15:02:08;25.20;66.20
20528;DHT22;23612;50.894;10.700;2023-07-16T15:04:34;25.20;65.60
20528;DHT22;23612;50.894;10.700;2023-07-16T15:06:59;25.10;66.10
20528;DHT22;23612;50.894;10.700;2023-07-16T15:09:25;25.20;66.80
20528;DHT22;23612;50.894;10.700;2023-07-16T15:11:51;25.20;65.80